Time;durP1;ratioP1;P1;durP2;ratioP2;P2;SDS_P1;SDS_P2;PMS_P1;PMS_P2;Temp;Humidity;BMP_temperature;BMP_pressure;BME280_temperature;BME280_humidity;BME280_pressure;Samples;Min_cycle;Max_cycle;Signal;HPM_P1;HPM_P2
2023/10/16 00:00:48;;;;;;;4.82;2.80;;;;;;;;;;5056540;28;20025;-58
2023/10/16 00:03:15;;;;;;;3.38;2.47;;;;;;;;;;5056562;28;20029;-58
2023/10/16 00:05:50;;;;;;;2.92;2.13;;;;;;;;;;5056067;28;20128;-58
2023/10/16 00:08:16;;;;;;;5.03;2.75;;;;;;;;;;5055956;28;20482;-58
2023/10/16 00:10:43;;;;;;;4.47;2.63;;;;;;;;;;5056486;28;20025;-58
2023/10/16 00:13:12;;;;;;;4.85;2.95;;;;;;;;;;5056379;28;20040;-58
2023/10/16 00:15:44;;;;;;;3.58;2.60;;;;;;;;;;5055704;28;20459;-58
2023/10/16 00:18:16;;;;;;;8.95;2.25;;;;;;;;;;5056242;28;20025;-57
2023/10/16 00:20:42;;;;;;;3.80;2.78;;;;;;;;;;5055704;28;20021;-58
2023/10/16 00:23:11;;;;;;;4.72;2.25;;;;;;;;;;5055668;28;20029;-58
2023/10/16 00:25:41;;;;;;;4.50;2.17;;;;;;;;;;5055630;28;20052;-58
2023/10/16 00:28:07;;;;;;;3.72;2.38;;;;;;;;;;5055536;28;20025;-58
2023/10/16 00:30:34;;;;;;;4.68;2.10;;;;;;;;;;5056084;28;20100;-57
2023/10/16 00:33:00;;;;;;;3.10;2.25;;;;;;;;;;5055740;28;20067;-57
2023/10/16 00:35:26;;;;;;;9.25;3.00;;;;;;;;;;5055095;28;20021;-58
2023/10/16 00:37:52;;;;;;;8.10;2.28;;;;;;;;;;5056129;28;20025;-58
2023/10/16 00:40:31;;;;;;;3.85;2.35;;;;;;;;;;5055642;28;20040;-58
2023/10/16 00:42:59;;;;;;;6.70;2.10;;;;;;;;;;5055885;28;20033;-58
2023/10/16 00:45:25;;;;;;;3.78;2.40;;;;;;;;;;5055522;28;20084;-58
2023/10/16 00:47:52;;;;;;;3.22;1.80;;;;;;;;;;5055411;28;20033;-57
2023/10/16 00:50:18;;;;;;;6.00;2.50;;;;;;;;;;5055952;28;20059;-58
2023/10/16 00:52:44;;;;;;;3.17;2.20;;;;;;;;;;5055051;28;20025;-58
2023/10/16 00:55:13;;;;;;;9.25;2.60;;;;;;;;;;5055030;28;20029;-58
2023/10/16 00:57:43;;;;;;;3.85;2.30;;;;;;;;;;5054924;28;20044;-58
2023/10/16 01:00:12;;;;;;;3.40;2.08;;;;;;;;;;5055508;28;20083;-57
2023/10/16 01:02:40;;;;;;;4.20;2.22;;;;;;;;;;5054471;28;20040;-57
2023/10/16 01:05:07;;;;;;;5.07;2.03;;;;;;;;;;5054902;28;20025;-58
2023/10/16 01:07:36;;;;;;;4.28;2.10;;;;;;;;;;5055036;28;20025;-57
2023/10/16 01:10:01;;;;;;;5.65;1.90;;;;;;;;;;5055342;28;20021;-57
2023/10/16 01:12:27;;;;;;;3.10;1.80;;;;;;;;;;5054348;28;20032;-57
2023/10/16 01:14:54;;;;;;;6.55;2.00;;;;;;;;;;5054657;28;20091;-58
2023/10/16 01:17:29;;;;;;;2.72;1.98;;;;;;;;;;5054821;28;20426;-58
2023/10/16 01:19:56;;;;;;;2.63;1.58;;;;;;;;;;5055145;28;20178;-57
2023/10/16 01:22:22;;;;;;;4.20;2.10;;;;;;;;;;5054510;28;20477;-57
2023/10/16 01:24:48;;;;;;;3.88;2.10;;;;;;;;;;5054541;28;20123;-58
2023/10/16 01:27:26;;;;;;;2.70;1.85;;;;;;;;;;5054888;28;20060;-57
2023/10/16 01:29:52;;;;;;;3.55;2.38;;;;;;;;;;5054709;28;20025;-57
2023/10/16 01:32:18;;;;;;;3.03;2.13;;;;;;;;;;5054524;28;20605;-57
2023/10/16 01:34:46;;;;;;;3.47;2.33;;;;;;;;;;5054111;28;20029;-57
2023/10/16 01:37:17;;;;;;;6.05;2.83;;;;;;;;;;5054138;28;20080;-58
2023/10/16 01:39:49;;;;;;;4.57;1.92;;;;;;;;;;5054297;28;20059;-57
2023/10/16 01:42:18;;;;;;;2.97;2.00;;;;;;;;;;5054672;28;20402;-58
2023/10/16 01:44:44;;;;;;;7.10;2.25;;;;;;;;;;5054482;28;20410;-58
2023/10/16 01:47:15;;;;;;;6.97;2.80;;;;;;;;;;5053991;28;20079;-57
2023/10/16 01:49:41;;;;;;;2.58;1.67;;;;;;;;;;5054900;28;20029;-57
2023/10/16 01:52:11;;;;;;;3.70;2.13;;;;;;;;;;5054306;28;20032;-57
2023/10/16 01:54:40;;;;;;;2.78;1.98;;;;;;;;;;5054538;28;20123;-58
2023/10/16 01:57:16;;;;;;;3.20;2.30;;;;;;;;;;5053778;28;20040;-58
2023/10/16 01:59:43;;;;;;;4.85;2.72;;;;;;;;;;5054723;28;20367;-57
2023/10/16 02:02:11;;;;;;;4.85;2.55;;;;;;;;;;5054054;28;20044;-57
2023/10/16 02:04:38;;;;;;;5.55;2.35;;;;;;;;;;5053793;28;20048;-58
2023/10/16 02:07:04;;;;;;;5.15;1.80;;;;;;;;;;5053769;28;20033;-57
2023/10/16 02:09:31;;;;;;;3.45;2.63;;;;;;;;;;5054272;28;20028;-58
2023/10/16 02:11:59;;;;;;;4.40;2.85;;;;;;;;;;5054537;28;20367;-58
2023/10/16 02:14:25;;;;;;;8.68;2.70;;;;;;;;;;5054154;28;20025;-57
2023/10/16 02:16:51;;;;;;;3.90;2.80;;;;;;;;;;5053592;28;20033;-57
2023/10/16 02:19:17;;;;;;;4.45;2.42;;;;;;;;;;5053649;28;20349;-58
2023/10/16 02:21:44;;;;;;;5.30;2.10;;;;;;;;;;5052313;28;20100;-58
2023/10/16 02:24:11;;;;;;;5.75;3.40;;;;;;;;;;5053544;28;20035;-57
2023/10/16 02:26:55;;;;;;;5.53;3.40;;;;;;;;;;5053506;28;20417;-58
2023/10/16 02:29:22;;;;;;;4.38;3.03;;;;;;;;;;5053275;28;20363;-57
2023/10/16 02:31:50;;;;;;;4.53;3.90;;;;;;;;;;5053473;28;20025;-57
2023/10/16 02:34:22;;;;;;;3.65;2.92;;;;;;;;;;5053937;28;20033;-57
2023/10/16 02:36:48;;;;;;;4.85;3.35;;;;;;;;;;5053528;28;20383;-58
2023/10/16 02:39:34;;;;;;;3.92;2.75;;;;;;;;;;5053844;28;20037;-58
2023/10/16 02:42:00;;;;;;;5.47;3.30;;;;;;;;;;5053019;28;20025;-57
2023/10/16 02:44:26;;;;;;;4.85;3.35;;;;;;;;;;5053793;28;20028;-57
2023/10/16 02:46:52;;;;;;;7.32;3.55;;;;;;;;;;5053815;28;20126;-57
2023/10/16 02:49:18;;;;;;;5.80;3.83;;;;;;;;;;5053541;28;20152;-58
2023/10/16 02:51:44;;;;;;;4.65;3.65;;;;;;;;;;5053332;28;20442;-57
2023/10/16 02:54:10;;;;;;;4.80;3.53;;;;;;;;;;5053525;28;20107;-57
2023/10/16 02:56:36;;;;;;;6.05;3.63;;;;;;;;;;5053403;28;20137;-58
2023/10/16 02:59:07;;;;;;;6.82;2.92;;;;;;;;;;5056353;28;20025;-57
2023/10/16 03:01:33;;;;;;;10.25;3.70;;;;;;;;;;5058033;28;20219;-58
2023/10/16 03:03:59;;;;;;;4.90;3.60;;;;;;;;;;5056876;28;20120;-58
2023/10/16 03:06:30;;;;;;;7.88;3.50;;;;;;;;;;5057136;28;20040;-57
2023/10/16 03:09:14;;;;;;;5.55;3.55;;;;;;;;;;5057089;28;20048;-58
2023/10/16 03:11:40;;;;;;;3.58;2.70;;;;;;;;;;5057623;28;20362;-58
2023/10/16 03:14:06;;;;;;;5.53;3.03;;;;;;;;;;5057000;28;20024;-57
2023/10/16 03:16:36;;;;;;;3.88;3.30;;;;;;;;;;5056851;28;20120;-58
2023/10/16 03:19:16;;;;;;;4.75;3.60;;;;;;;;;;5057198;28;20052;-57
2023/10/16 03:21:45;;;;;;;4.93;3.27;;;;;;;;;;5057442;28;20037;-58
2023/10/16 03:24:11;;;;;;;7.03;4.03;;;;;;;;;;5056832;28;20025;-58
2023/10/16 03:26:42;;;;;;;7.65;4.50;;;;;;;;;;5057152;28;20109;-58
2023/10/16 03:29:08;;;;;;;5.88;4.15;;;;;;;;;;5056736;28;20028;-58
2023/10/16 03:31:36;;;;;;;4.70;3.78;;;;;;;;;;5057046;28;20061;-57
2023/10/16 03:34:02;;;;;;;6.05;3.38;;;;;;;;;;5056662;28;20475;-57
2023/10/16 03:36:28;;;;;;;7.57;3.88;;;;;;;;;;5056480;28;20079;-58
2023/10/16 03:38:57;;;;;;;5.28;3.95;;;;;;;;;;5056501;28;20108;-57
2023/10/16 03:41:32;;;;;;;4.65;3.78;;;;;;;;;;5057070;28;20029;-58
2023/10/16 03:44:14;;;;;;;6.63;3.60;;;;;;;;;;5057031;28;20086;-57
2023/10/16 03:46:40;;;;;;;5.35;3.85;;;;;;;;;;5056849;28;20116;-57
2023/10/16 03:49:06;;;;;;;6.35;4.82;;;;;;;;;;5056833;28;20029;-57
2023/10/16 03:51:32;;;;;;;7.38;5.25;;;;;;;;;;5056860;28;20036;-55
2023/10/16 03:53:58;;;;;;;8.75;4.90;;;;;;;;;;5055962;28;20479;-57
2023/10/16 03:56:24;;;;;;;6.32;4.28;;;;;;;;;;5056075;28;20040;-57
2023/10/16 03:58:53;;;;;;;6.18;4.53;;;;;;;;;;5056073;28;20032;-57
2023/10/16 04:01:29;;;;;;;6.03;5.00;;;;;;;;;;5056797;28;20033;-58
2023/10/16 04:03:58;;;;;;;8.05;5.07;;;;;;;;;;5056479;28;20378;-57
2023/10/16 04:06:25;;;;;;;6.03;4.13;;;;;;;;;;5056035;28;20025;-57
2023/10/16 04:08:51;;;;;;;5.95;4.75;;;;;;;;;;5055893;28;20029;-57
2023/10/16 04:11:18;;;;;;;8.63;4.38;;;;;;;;;;5056086;28;20032;-56
2023/10/16 04:13:47;;;;;;;5.47;4.45;;;;;;;;;;5056456;28;20032;-57
2023/10/16 04:16:30;;;;;;;5.35;4.57;;;;;;;;;;5055761;28;20430;-56
2023/10/16 04:19:07;;;;;;;5.00;3.90;;;;;;;;;;5056132;28;20478;-56
2023/10/16 04:21:40;;;;;;;6.22;3.53;;;;;;;;;;5056605;28;20115;-57
2023/10/16 04:24:30;;;;;;;5.40;3.80;;;;;;;;;;5056347;28;20100;-56
2023/10/16 04:29:35;;;;;;;7.80;4.07;;;;;;;;;;5055699;28;20029;-56
2023/10/16 04:34:53;;;;;;;11.48;5.05;;;;;;;;;;5054112;28;20136;-57
2023/10/16 04:37:40;;;;;;;3.70;3.28;;;;;;;;;;5055952;28;20044;-56
2023/10/16 04:50:40;;;;;;;6.87;3.90;;;;;;;;;;5055419;28;20044;-57
2023/10/16 05:08:59;;;;;;;4.80;3.50;;;;;;;;;;5055215;28;20033;-57
2023/10/16 05:14:28;;;;;;;5.13;3.47;;;;;;;;;;5055148;28;20033;-56
2023/10/16 05:17:07;;;;;;;4.18;2.90;;;;;;;;;;5054151;28;20485;-56
2023/10/16 05:22:03;;;;;;;3.75;2.40;;;;;;;;;;5053794;28;20029;-57
2023/10/16 06:14:10;;;;;;;4.63;4.05;;;;;;;;;;5054023;28;20032;-58
2023/10/16 06:16:46;;;;;;;4.45;3.45;;;;;;;;;;5054421;28;20090;-57
2023/10/16 06:19:18;;;;;;;4.47;3.40;;;;;;;;;;5053368;28;20162;-57
2023/10/16 06:21:48;;;;;;;5.95;3.85;;;;;;;;;;5054291;28;20098;-56
2023/10/16 06:24:33;;;;;;;4.90;3.40;;;;;;;;;;5054097;28;20025;-57
2023/10/16 06:26:59;;;;;;;5.70;3.97;;;;;;;;;;5054058;28;20029;-57
2023/10/16 06:29:34;;;;;;;5.65;4.32;;;;;;;;;;5053594;28;20033;-57
2023/10/16 06:32:18;;;;;;;5.43;3.40;;;;;;;;;;5053363;28;20025;-57
2023/10/16 06:34:45;;;;;;;4.40;3.00;;;;;;;;;;5054094;28;20363;-57
2023/10/16 06:37:16;;;;;;;5.13;3.28;;;;;;;;;;5053865;28;20049;-57
2023/10/16 06:39:42;;;;;;;7.30;3.85;;;;;;;;;;5053985;28;20446;-56
2023/10/16 06:42:14;;;;;;;3.78;3.30;;;;;;;;;;5053746;28;20481;-56
2023/10/16 06:44:42;;;;;;;4.22;3.40;;;;;;;;;;5054245;28;20366;-55
2023/10/16 06:47:12;;;;;;;8.48;3.58;;;;;;;;;;5053836;28;20045;-57
2023/10/16 06:49:38;;;;;;;3.58;2.90;;;;;;;;;;5053936;28;20037;-57
2023/10/16 06:52:05;;;;;;;10.18;3.45;;;;;;;;;;5053299;28;20128;-57
2023/10/16 06:54:37;;;;;;;5.07;2.97;;;;;;;;;;5053344;28;20021;-56
2023/10/16 06:57:12;;;;;;;4.47;3.15;;;;;;;;;;5054111;28;20147;-57
2023/10/16 06:59:41;;;;;;;4.57;2.75;;;;;;;;;;5053499;28;20408;-57
2023/10/16 07:02:15;;;;;;;3.50;2.72;;;;;;;;;;5053172;28;20552;-57
2023/10/16 07:04:41;;;;;;;6.28;3.10;;;;;;;;;;5053254;28;20033;-56
2023/10/16 07:07:14;;;;;;;3.25;2.75;;;;;;;;;;5053659;28;20082;-57
2023/10/16 07:09:47;;;;;;;4.95;3.03;;;;;;;;;;5051665;28;20029;-55
2023/10/16 07:12:13;;;;;;;5.00;3.42;;;;;;;;;;5054033;28;20021;-56
2023/10/16 07:14:39;;;;;;;5.90;3.70;;;;;;;;;;5053156;28;20030;-57
2023/10/16 07:17:05;;;;;;;5.28;3.58;;;;;;;;;;5053000;28;20033;-57
2023/10/16 07:19:31;;;;;;;3.78;2.58;;;;;;;;;;5053421;28;20036;-57
2023/10/16 07:22:00;;;;;;;3.70;3.15;;;;;;;;;;5052988;28;20204;-57
2023/10/16 07:24:26;;;;;;;6.38;3.70;;;;;;;;;;5053452;28;20039;-57
2023/10/16 07:26:51;;;;;;;4.80;3.28;;;;;;;;;;5053550;28;20064;-57
2023/10/16 07:29:18;;;;;;;2.40;2.00;;;;;;;;;;5052906;28;20025;-57
2023/10/16 07:31:44;;;;;;;3.17;2.75;;;;;;;;;;5053489;28;20060;-56
2023/10/16 07:34:09;;;;;;;5.70;3.47;;;;;;;;;;5052807;28;20021;-57
2023/10/16 07:36:35;;;;;;;3.63;2.90;;;;;;;;;;5053009;28;20383;-57
2023/10/16 07:39:02;;;;;;;5.18;3.20;;;;;;;;;;5052828;28;20029;-57
2023/10/16 07:41:28;;;;;;;3.97;3.22;;;;;;;;;;5053166;28;20029;-57
2023/10/16 07:44:04;;;;;;;5.15;2.65;;;;;;;;;;5054482;28;20029;-57
2023/10/16 07:46:30;;;;;;;6.60;3.40;;;;;;;;;;5057002;28;20021;-57
2023/10/16 07:49:01;;;;;;;4.82;2.55;;;;;;;;;;5056455;28;20052;-57
2023/10/16 07:51:27;;;;;;;3.85;2.35;;;;;;;;;;5056389;28;20035;-57
2023/10/16 07:53:53;;;;;;;5.45;3.08;;;;;;;;;;5057128;28;20028;-57
2023/10/16 07:56:25;;;;;;;4.00;2.53;;;;;;;;;;5056914;28;20040;-57
2023/10/16 07:58:55;;;;;;;3.97;2.65;;;;;;;;;;5057282;28;20032;-57
2023/10/16 08:01:36;;;;;;;3.63;2.75;;;;;;;;;;5056554;28;20386;-57
2023/10/16 08:06:52;;;;;;;3.72;2.75;;;;;;;;;;5056197;28;20383;-57
2023/10/16 08:11:56;;;;;;;3.05;2.40;;;;;;;;;;5056070;28;20137;-57
2023/10/16 08:14:23;;;;;;;3.83;2.85;;;;;;;;;;5056485;28;20032;-57
2023/10/16 08:16:56;;;;;;;6.60;3.00;;;;;;;;;;5055491;28;20053;-57
2023/10/16 08:19:24;;;;;;;5.25;2.38;;;;;;;;;;5056079;28;20032;-57
2023/10/16 08:21:50;;;;;;;3.80;2.22;;;;;;;;;;5056607;28;20055;-57
2023/10/16 08:24:21;;;;;;;4.70;3.13;;;;;;;;;;5056293;28;20029;-58
2023/10/16 08:26:48;;;;;;;3.88;2.88;;;;;;;;;;5056247;28;20446;-58
2023/10/16 08:31:44;;;;;;;3.78;2.72;;;;;;;;;;5055736;28;20043;-58
2023/10/16 08:34:11;;;;;;;3.47;2.60;;;;;;;;;;5055514;28;20384;-57
2023/10/16 08:36:37;;;;;;;3.70;2.63;;;;;;;;;;5055392;28;20408;-58
2023/10/16 08:39:11;;;;;;;4.32;2.20;;;;;;;;;;5055272;28;20135;-58
2023/10/16 08:41:45;;;;;;;3.35;2.50;;;;;;;;;;5055908;28;20036;-58
2023/10/16 08:44:15;;;;;;;3.55;2.30;;;;;;;;;;5055703;28;20086;-56
2023/10/16 08:47:16;;;;;;;5.70;2.95;;;;;;;;;;5054860;28;20528;-57
2023/10/16 08:49:39;;;;;;;4.22;2.40;;;;;;;;;;5055105;28;20035;-57
2023/10/16 08:52:08;;;;;;;5.18;2.45;;;;;;;;;;5054969;28;20044;-58
2023/10/16 08:55:00;;;;;;;3.75;2.55;;;;;;;;;;5055120;28;20025;-58
2023/10/16 08:57:22;;;;;;;2.95;2.00;;;;;;;;;;5054661;28;20037;-58
2023/10/16 08:59:52;;;;;;;3.83;1.75;;;;;;;;;;5055394;28;20021;-57
2023/10/16 09:02:19;;;;;;;4.50;1.77;;;;;;;;;;5055104;28;20029;-57
2023/10/16 09:04:48;;;;;;;2.88;1.65;;;;;;;;;;5054936;28;20021;-57
2023/10/16 09:07:16;;;;;;;3.28;2.03;;;;;;;;;;5054791;28;20112;-57
2023/10/16 09:09:44;;;;;;;4.28;2.40;;;;;;;;;;5055017;28;20025;-57
2023/10/16 09:12:12;;;;;;;3.15;2.00;;;;;;;;;;5055400;28;20418;-58
2023/10/16 09:14:39;;;;;;;3.30;1.90;;;;;;;;;;5054824;28;20514;-58
2023/10/16 09:17:06;;;;;;;3.00;1.77;;;;;;;;;;5054646;28;20414;-57
2023/10/16 09:19:45;;;;;;;4.85;2.10;;;;;;;;;;5055341;28;20025;-57
2023/10/16 09:22:13;;;;;;;2.95;1.95;;;;;;;;;;5054996;28;20037;-57
2023/10/16 09:24:43;;;;;;;2.90;1.58;;;;;;;;;;5054610;28;20056;-58
2023/10/16 09:27:16;;;;;;;;;;;;;;;;;;5055561;28;20029;-58
2023/10/16 09:29:53;;;;;;;2.88;1.50;;;;;;;;;;5055375;28;19908;-57
2023/10/16 09:32:22;;;;;;;2.33;1.48;;;;;;;;;;5055105;28;20429;-57
2023/10/16 09:34:52;;;;;;;2.92;1.75;;;;;;;;;;5054494;28;20157;-57
2023/10/16 09:37:23;;;;;;;3.28;1.30;;;;;;;;;;5054620;28;20052;-57
2023/10/16 09:39:52;;;;;;;4.68;2.25;;;;;;;;;;5054522;28;20053;-57
2023/10/16 09:42:24;;;;;;;3.92;1.65;;;;;;;;;;5054210;28;20116;-58
2023/10/16 09:44:59;;;;;;;2.67;1.50;;;;;;;;;;5054636;28;20032;-57
2023/10/16 09:47:25;;;;;;;2.65;1.40;;;;;;;;;;5055081;28;20371;-57
2023/10/16 09:49:55;;;;;;;3.53;1.80;;;;;;;;;;5055062;28;20028;-58
2023/10/16 09:52:22;;;;;;;2.42;1.40;;;;;;;;;;5054051;28;20017;-57
2023/10/16 09:54:48;;;;;;;4.65;1.60;;;;;;;;;;5054720;28;20035;-58
2023/10/16 09:57:18;;;;;;;4.40;2.10;;;;;;;;;;5054244;28;20099;-57
2023/10/16 09:59:44;;;;;;;3.53;1.83;;;;;;;;;;5054808;28;20028;-58
2023/10/16 10:02:17;;;;;;;4.72;2.05;;;;;;;;;;5053795;28;20395;-57
2023/10/16 10:04:49;;;;;;;4.45;2.42;;;;;;;;;;5053949;28;20021;-58
2023/10/16 10:07:19;;;;;;;2.70;1.80;;;;;;;;;;5053994;28;20029;-57
2023/10/16 10:09:47;;;;;;;2.78;2.42;;;;;;;;;;5054664;28;20025;-58
2023/10/16 10:12:14;;;;;;;3.17;2.10;;;;;;;;;;5053393;28;20033;-58
2023/10/16 10:14:48;;;;;;;3.85;2.58;;;;;;;;;;5053265;28;20493;-57
2023/10/16 10:17:25;;;;;;;2.67;2.10;;;;;;;;;;5054190;28;20037;-57
2023/10/16 10:19:55;;;;;;;5.40;3.75;;;;;;;;;;5053950;28;20028;-58
2023/10/16 10:22:28;;;;;;;5.15;2.47;;;;;;;;;;5054259;28;20025;-58
2023/10/16 10:25:22;;;;;;;3.70;2.05;;;;;;;;;;5054298;28;20029;-58
2023/10/16 10:27:48;;;;;;;4.00;2.88;;;;;;;;;;5053878;28;20389;-58
2023/10/16 10:30:18;;;;;;;4.03;3.20;;;;;;;;;;5054122;28;20013;-57
2023/10/16 10:32:44;;;;;;;3.65;2.42;;;;;;;;;;5053196;28;20426;-57
2023/10/16 10:35:29;;;;;;;3.67;2.90;;;;;;;;;;5053192;28;20017;-57
2023/10/16 10:38:18;;;;;;;2.90;2.15;;;;;;;;;;5053442;28;20056;-58
2023/10/16 10:41:02;;;;;;;4.63;3.00;;;;;;;;;;5053358;28;20029;-58
2023/10/16 10:43:48;;;;;;;7.63;2.60;;;;;;;;;;5053141;28;20028;-58
2023/10/16 10:46:25;;;;;;;5.95;3.00;;;;;;;;;;5054029;28;20050;-57
2023/10/16 10:48:54;;;;;;;3.47;2.50;;;;;;;;;;5053660;28;20022;-58
2023/10/16 10:51:20;;;;;;;3.20;2.47;;;;;;;;;;5053347;28;20037;-58
2023/10/16 10:53:59;;;;;;;4.43;2.80;;;;;;;;;;5053619;28;20045;-58
2023/10/16 10:56:51;;;;;;;3.78;2.25;;;;;;;;;;5053783;28;20029;-57
2023/10/16 10:59:41;;;;;;;3.58;2.15;;;;;;;;;;5053290;28;20028;-57
2023/10/16 11:04:44;;;;;;;5.10;2.45;;;;;;;;;;5053520;28;20036;-58
2023/10/16 11:07:26;;;;;;;2.60;1.63;;;;;;;;;;5053824;28;20037;-58
2023/10/16 11:09:52;;;;;;;3.53;1.65;;;;;;;;;;5053726;28;20035;-57
2023/10/16 11:12:24;;;;;;;3.13;2.10;;;;;;;;;;5052949;28;20066;-58
2023/10/16 11:14:50;;;;;;;2.67;2.15;;;;;;;;;;5053449;28;20032;-58
2023/10/16 11:17:35;;;;;;;5.35;2.53;;;;;;;;;;5053581;28;20078;-58
2023/10/16 11:22:57;;;;;;;6.43;2.00;;;;;;;;;;5056514;28;20090;-57
2023/10/16 11:25:28;;;;;;;2.92;2.05;;;;;;;;;;5057207;28;20090;-57
2023/10/16 11:27:57;;;;;;;3.30;1.65;;;;;;;;;;5057212;28;20040;-58
2023/10/16 11:30:27;;;;;;;3.95;1.90;;;;;;;;;;5057192;28;20423;-58
2023/10/16 11:32:54;;;;;;;3.42;1.98;;;;;;;;;;5056449;28;20590;-58
2023/10/16 11:35:20;;;;;;;1.70;1.00;;;;;;;;;;5056565;28;20021;-58
2023/10/16 11:37:52;;;;;;;3.30;1.48;;;;;;;;;;5057018;28;20040;-58
2023/10/16 11:40:24;;;;;;;2.67;1.52;;;;;;;;;;5056829;28;20043;-58
2023/10/16 11:42:52;;;;;;;2.42;1.48;;;;;;;;;;5056518;28;20459;-58
2023/10/16 11:45:21;;;;;;;3.13;1.35;;;;;;;;;;5056044;28;20029;-58
2023/10/16 11:50:41;;;;;;;5.85;1.42;;;;;;;;;;5056705;28;20229;-58
2023/10/16 11:53:10;;;;;;;2.47;1.17;;;;;;;;;;5056995;28;20130;-58
2023/10/16 11:55:36;;;;;;;2.30;1.35;;;;;;;;;;5056051;28;20032;-58
2023/10/16 11:58:06;;;;;;;1.55;1.00;;;;;;;;;;5055812;28;20360;-58
2023/10/16 12:00:35;;;;;;;2.10;1.40;;;;;;;;;;5056482;28;20507;-58
2023/10/16 12:03:07;;;;;;;1.88;1.10;;;;;;;;;;5056644;28;20029;-58
2023/10/16 12:05:34;;;;;;;1.70;1.00;;;;;;;;;;5056436;28;20045;-58
2023/10/16 12:08:02;;;;;;;2.70;1.48;;;;;;;;;;5055943;28;20497;-58
2023/10/16 12:10:28;;;;;;;1.95;0.90;;;;;;;;;;5056584;28;20383;-58
2023/10/16 12:12:55;;;;;;;2.33;0.90;;;;;;;;;;5056011;28;20459;-58
2023/10/16 12:15:24;;;;;;;1.70;0.75;;;;;;;;;;5056077;28;20060;-58
2023/10/16 12:17:50;;;;;;;2.08;0.80;;;;;;;;;;5056454;28;20119;-58
2023/10/16 12:20:16;;;;;;;1.33;0.57;;;;;;;;;;5056805;28;20486;-58
2023/10/16 12:22:44;;;;;;;2.63;1.30;;;;;;;;;;5056431;28;20021;-58
2023/10/16 12:25:10;;;;;;;2.00;1.27;;;;;;;;;;5055784;28;20071;-58
2023/10/16 12:27:36;;;;;;;7.88;1.58;;;;;;;;;;5056290;28;20024;-58
2023/10/16 12:30:03;;;;;;;2.72;1.42;;;;;;;;;;5056310;28;20100;-58
2023/10/16 12:32:29;;;;;;;1.73;0.90;;;;;;;;;;5056187;28;20029;-57
2023/10/16 12:34:57;;;;;;;1.92;0.85;;;;;;;;;;5055641;28;20020;-58
2023/10/16 12:37:25;;;;;;;2.05;0.90;;;;;;;;;;5056627;28;20068;-58
2023/10/16 12:39:52;;;;;;;2.72;1.20;;;;;;;;;;5055825;28;20032;-58
2023/10/16 12:42:19;;;;;;;1.67;0.82;;;;;;;;;;5055501;28;20036;-58
2023/10/16 12:44:45;;;;;;;1.67;0.90;;;;;;;;;;5055501;28;20375;-58
2023/10/16 12:47:12;;;;;;;2.40;1.20;;;;;;;;;;5055187;28;20082;-58
2023/10/16 12:49:38;;;;;;;1.73;1.02;;;;;;;;;;5055959;28;20029;-58
2023/10/16 12:52:05;;;;;;;2.50;1.05;;;;;;;;;;5056001;28;20511;-58
2023/10/16 12:54:31;;;;;;;2.72;0.82;;;;;;;;;;5055766;28;20025;-58
2023/10/16 12:57:02;;;;;;;2.05;1.05;;;;;;;;;;5055075;28;20505;-58
2023/10/16 12:59:28;;;;;;;1.92;0.90;;;;;;;;;;5054779;28;20052;-58
2023/10/16 13:01:54;;;;;;;1.13;0.60;;;;;;;;;;5055052;28;20025;-58
2023/10/16 13:04:20;;;;;;;4.13;1.65;;;;;;;;;;5055605;28;20375;-58
2023/10/16 13:06:46;;;;;;;2.25;1.15;;;;;;;;;;5055535;28;20036;-58
2023/10/16 13:09:16;;;;;;;2.33;1.08;;;;;;;;;;5054644;28;20024;-58
2023/10/16 13:11:42;;;;;;;2.85;1.08;;;;;;;;;;5055811;28;20025;-58
2023/10/16 13:14:08;;;;;;;1.40;0.98;;;;;;;;;;5054810;28;20351;-58
2023/10/16 13:16:34;;;;;;;2.78;0.80;;;;;;;;;;5054669;28;20031;-58
2023/10/16 13:19:00;;;;;;;2.85;1.20;;;;;;;;;;5054911;28;20053;-58
2023/10/16 13:21:33;;;;;;;1.63;0.80;;;;;;;;;;5054995;28;20207;-58
2023/10/16 13:24:09;;;;;;;1.50;0.70;;;;;;;;;;5054691;28;20107;-58
2023/10/16 13:26:38;;;;;;;2.53;1.25;;;;;;;;;;5054563;28;20479;-58
2023/10/16 13:29:08;;;;;;;1.55;0.95;;;;;;;;;;5054766;28;20494;-58
2023/10/16 13:31:46;;;;;;;1.75;0.98;;;;;;;;;;5054831;28;20053;-58
2023/10/16 13:34:17;;;;;;;2.58;1.25;;;;;;;;;;5055170;28;20355;-58
2023/10/16 13:36:56;;;;;;;2.20;1.10;;;;;;;;;;5054123;28;20045;-58
2023/10/16 13:39:24;;;;;;;1.42;0.85;;;;;;;;;;5055175;28;20024;-58
2023/10/16 13:41:51;;;;;;;2.08;1.00;;;;;;;;;;5053625;28;20033;-58
2023/10/16 13:44:25;;;;;;;2.00;1.15;;;;;;;;;;5053899;28;20021;-58
2023/10/16 13:46:55;;;;;;;1.95;1.30;;;;;;;;;;5055023;28;20086;-58
2023/10/16 13:49:23;;;;;;;2.28;1.45;;;;;;;;;;5054184;28;20478;-58
2023/10/16 13:51:52;;;;;;;4.60;1.30;;;;;;;;;;5053784;28;20029;-58
2023/10/16 13:54:18;;;;;;;2.10;1.15;;;;;;;;;;5053726;28;20459;-58
2023/10/16 13:56:46;;;;;;;1.80;0.90;;;;;;;;;;5054698;28;20119;-58
2023/10/16 13:59:12;;;;;;;3.08;1.33;;;;;;;;;;5054697;28;20366;-58
2023/10/16 14:01:39;;;;;;;2.25;1.13;;;;;;;;;;5054087;28;20025;-58
2023/10/16 14:04:14;;;;;;;1.50;0.88;;;;;;;;;;5053979;28;20511;-58
2023/10/16 14:06:52;;;;;;;1.30;0.85;;;;;;;;;;5053849;28;20055;-59
2023/10/16 14:09:36;;;;;;;2.63;1.10;;;;;;;;;;5054449;28;20358;-58
2023/10/16 14:12:02;;;;;;;1.38;0.73;;;;;;;;;;5054175;28;20123;-58
2023/10/16 14:14:32;;;;;;;1.63;0.80;;;;;;;;;;5053638;28;20362;-58
2023/10/16 14:17:18;;;;;;;1.83;1.00;;;;;;;;;;5054386;28;20040;-58
2023/10/16 14:19:53;;;;;;;1.50;0.80;;;;;;;;;;5054131;28;20041;-58
2023/10/16 14:22:23;;;;;;;1.48;0.85;;;;;;;;;;5053606;28;20074;-58
2023/10/16 14:24:50;;;;;;;7.68;1.15;;;;;;;;;;5053883;28;20029;-58
2023/10/16 14:27:24;;;;;;;2.22;0.93;;;;;;;;;;5053392;28;20178;-59
2023/10/16 14:29:58;;;;;;;1.70;0.77;;;;;;;;;;5053942;28;20040;-58
2023/10/16 14:32:26;;;;;;;1.88;1.02;;;;;;;;;;5054212;28;20025;-59
2023/10/16 14:34:52;;;;;;;1.65;0.98;;;;;;;;;;5053827;28;20021;-58
2023/10/16 14:37:18;;;;;;;1.67;0.80;;;;;;;;;;5054283;28;20068;-58
2023/10/16 14:39:46;;;;;;;1.50;0.85;;;;;;;;;;5053961;28;20021;-58
2023/10/16 14:42:12;;;;;;;1.92;0.90;;;;;;;;;;5053172;28;20478;-58
2023/10/16 14:44:40;;;;;;;2.30;0.90;;;;;;;;;;5053920;28;20059;-58
2023/10/16 14:47:09;;;;;;;1.00;0.60;;;;;;;;;;5053372;28;20029;-58
2023/10/16 14:49:35;;;;;;;1.08;0.60;;;;;;;;;;5053374;28;20025;-59
2023/10/16 14:52:02;;;;;;;1.60;0.80;;;;;;;;;;5053319;28;20025;-58
2023/10/16 14:54:29;;;;;;;1.27;0.68;;;;;;;;;;5057466;28;20064;-58
2023/10/16 14:56:59;;;;;;;1.30;0.80;;;;;;;;;;5058053;28;20044;-58
2023/10/16 14:59:32;;;;;;;2.25;0.68;;;;;;;;;;5057968;28;20029;-59
2023/10/16 15:01:58;;;;;;;1.13;0.75;;;;;;;;;;5057602;28;20040;-59
2023/10/16 15:04:24;;;;;;;1.80;0.90;;;;;;;;;;5057381;28;20057;-58
2023/10/16 15:06:50;;;;;;;2.10;0.95;;;;;;;;;;5057312;28;20476;-58
2023/10/16 15:09:16;;;;;;;1.70;0.70;;;;;;;;;;5058015;28;20118;-58
2023/10/16 15:11:43;;;;;;;2.30;0.77;;;;;;;;;;5057160;28;20032;-58
2023/10/16 15:14:12;;;;;;;1.73;0.90;;;;;;;;;;5057160;28;20466;-58
2023/10/16 15:16:38;;;;;;;3.03;0.77;;;;;;;;;;5056705;28;20076;-58
2023/10/16 15:19:07;;;;;;;2.08;0.90;;;;;;;;;;5057103;28;20052;-58
2023/10/16 15:21:33;;;;;;;1.35;0.70;;;;;;;;;;5057935;28;20037;-58
2023/10/16 15:23:59;;;;;;;2.55;0.80;;;;;;;;;;5057012;28;20025;-58
2023/10/16 15:26:25;;;;;;;1.83;0.60;;;;;;;;;;5057020;28;20063;-58
2023/10/16 15:28:52;;;;;;;2.40;0.88;;;;;;;;;;5057683;28;20416;-58
2023/10/16 15:31:19;;;;;;;1.83;0.73;;;;;;;;;;5056812;28;20025;-58
2023/10/16 15:33:45;;;;;;;1.83;0.75;;;;;;;;;;5057443;28;20025;-59
2023/10/16 15:36:12;;;;;;;2.03;1.08;;;;;;;;;;5056510;28;20493;-58
2023/10/16 15:38:37;;;;;;;1.17;0.70;;;;;;;;;;5056521;28;20491;-59
2023/10/16 15:41:06;;;;;;;1.80;0.85;;;;;;;;;;5057009;28;20025;-58
2023/10/16 15:43:35;;;;;;;2.00;0.85;;;;;;;;;;5057302;28;20040;-59
2023/10/16 15:46:02;;;;;;;1.58;0.85;;;;;;;;;;5056706;28;20029;-58
2023/10/16 15:48:29;;;;;;;4.07;1.27;;;;;;;;;;5056421;28;20024;-58
2023/10/16 15:50:55;;;;;;;1.42;0.85;;;;;;;;;;5056988;28;20025;-58
2023/10/16 15:53:21;;;;;;;2.28;1.10;;;;;;;;;;5056273;28;20029;-58
2023/10/16 15:55:47;;;;;;;5.32;1.02;;;;;;;;;;5056266;28;20028;-58
2023/10/16 15:58:13;;;;;;;2.85;1.00;;;;;;;;;;5056283;28;20033;-58
2023/10/16 16:00:41;;;;;;;1.50;0.80;;;;;;;;;;5056798;28;20032;-58
2023/10/16 16:03:08;;;;;;;2.95;1.30;;;;;;;;;;5056009;28;20029;-58
2023/10/16 16:05:34;;;;;;;2.00;1.15;;;;;;;;;;5055302;28;20025;-58
2023/10/16 16:08:04;;;;;;;1.90;0.90;;;;;;;;;;5056187;28;20033;-58
2023/10/16 16:10:33;;;;;;;3.67;1.25;;;;;;;;;;5056616;28;20029;-58
2023/10/16 16:13:01;;;;;;;1.40;0.70;;;;;;;;;;5055795;28;20100;-57
2023/10/16 16:15:27;;;;;;;1.70;1.00;;;;;;;;;;5056036;28;20041;-58
2023/10/16 16:18:00;;;;;;;1.40;0.82;;;;;;;;;;5056571;28;20033;-58
2023/10/16 16:20:28;;;;;;;1.90;1.17;;;;;;;;;;5056163;28;20029;-58
2023/10/16 16:22:56;;;;;;;1.80;1.00;;;;;;;;;;5055762;28;20029;-59
2023/10/16 16:25:22;;;;;;;2.45;0.90;;;;;;;;;;5055801;28;20029;-58
2023/10/16 16:27:48;;;;;;;2.13;0.65;;;;;;;;;;5055988;28;20032;-58
2023/10/16 16:30:16;;;;;;;3.10;1.92;;;;;;;;;;5055803;28;20078;-58
2023/10/16 16:32:42;;;;;;;1.48;0.77;;;;;;;;;;5055738;28;20032;-58
2023/10/16 16:35:08;;;;;;;2.33;1.33;;;;;;;;;;5056064;28;20110;-58
2023/10/16 16:37:34;;;;;;;1.80;1.20;;;;;;;;;;5055463;28;20045;-58
2023/10/16 16:40:06;;;;;;;2.00;1.30;;;;;;;;;;5055677;28;20029;-58